Tiempo atmosférico en la estación meteorológica de La Aldea De San Nicolas, Las Palmas (13 m.)



Fecha
DESCASC
Temp. máxima en grados centígrados (hora)
DESCASC
Temp. mínima en grados centígrados (hora)
DESCASC
Temp. media en grados centígrados
DESCASC
Racha de viento máxima en m/sg (hora)
DESCASC
Velocidad máxima media en intervalos de 10 minutos(hora)
DESCASC
Precipitaciones diarias en mm
DESCASC
Precipitaciones de 00:00 a 06:00 en mm
DESCASC
Precipitaciones de 06:00 a 12:00 en mm
DESCASC
Precipitaciones de 12:00 a 18:00 en mm
DESCASC
Precipitaciones de 18:00 a 24:00 en mm
DESCASC

Gráficas

Temp. máximas Temp. mínimas Temp. medias Precipitaciones Rachas de viento máximas Velocidades máximas media en intervalos de 10 minutos

Datos horarios

Fecha y hora oficial Temperatura (ºC) Velocidad del viento (km/h) Dirección del viento Racha (km/h) Dirección de racha Precipitación (mm) Presión (hPa) Tendencia (hPa) Humedad (%)
2019-09-19 23:00:00 22.4 29 Nordeste 50 Nordeste 0 1015.7 1.3 77
2019-09-19 22:00:00 22.6 30 Norte 60 Nordeste 0 1015.3 1.2 77
2019-09-19 21:00:00 22.7 35 Nordeste 65 Nordeste 0 1015.1 1 78
2019-09-19 20:00:00 23.1 31 Norte 58 Nordeste 0 1014.4 0.6 77
2019-09-19 19:00:00 24.3 33 Norte 57 Norte 0 1014.1 -0.1 71
2019-09-19 18:00:00 25.1 33 Nordeste 59 Norte 0 1014.1 -0.7 68
2019-09-19 17:00:00 25.8 33 Norte 58 Norte 0 1013.8 -1.3 64
2019-09-19 16:00:00 25.9 30 Norte 59 Nordeste 0 1014.2 -0.8 62
2019-09-19 15:00:00 26.2 32 Nordeste 59 Norte 0 1014.8 -1 62
2019-09-19 14:00:00 25.5 31 Nordeste 62 Norte 0 1015.1 -0.4 65
2019-09-19 13:00:00 25.7 35 Nordeste 62 Nordeste 0 1015 -0.3 64
2019-09-19 12:00:00 25.1 26 Nordeste 52 Nordeste 0 1015.8 1.1 61
2019-09-19 11:00:00 24.5 23 Nordeste 45 Nordeste 0 1015.5 1 64
2019-09-19 10:00:00 23.5 22 Nordeste 48 Nordeste 0 1015.3 1 70
2019-09-19 09:00:00 20.7 7 Sur 23 Sudeste 0 1014.7 0.6 78
2019-09-19 08:00:00 20.1 14 Este 35 Este 0 1014.5 0.3 78
2019-09-19 07:00:00 19.6 12 Sudeste 28 Norte 0 1014.3 0.1 80
2019-09-19 06:00:00 21.7 23 Nordeste 42 Nordeste 0 1014.1 -0.5 74
2019-09-19 05:00:00 21.7 26 Nordeste 40 Nordeste 0 1014.2 -0.7 75
2019-09-19 04:00:00 19.3 4 Sudeste 23 Nordeste 0 1014.2 -0.9 81
2019-09-19 03:00:00 21.7 15 Norte 33 Norte 0 1014.6 -0.8 76
2019-09-19 02:00:00 21.3 10 Nordeste 28 Nordeste 0 1014.9 -0.5 79
2019-09-19 01:00:00 20.7 6 Este 24 Nordeste 0 1015.1 0.1 77
2019-09-19 00:00:00 22.5 13 Nordeste 25 Nordeste 0 1015.4 0.9 74
2019-09-18 23:00:00 22.8 14 Norte 35 Nordeste 0 1015.4 1.4 73
2019-09-18 22:00:00 22.9 15 Norte 35 Nordeste 0 1015 1.1 72
2019-09-18 21:00:00 23.2 23 Norte 45 Norte 0 1014.5 0.5 72
2019-09-18 20:00:00 24 24 Norte 46 Nordeste 0 1014 0.3 68
2019-09-18 19:00:00 25 24 Norte 43 Norte 0 1013.9 -0.1 64
2019-09-18 18:00:00 25.4 31 Norte 55 Nordeste 0 1014 -0.2 64
2019-09-18 17:00:00 26.4 27 Norte 47 Norte 0 1013.7 -1 60
2019-09-18 16:00:00 26.5 27 Norte 52 Norte 0 1014 -0.9 59
2019-09-18 15:00:00 27.3 30 Norte 49 Nordeste 0 1014.2 -0.9 55
2019-09-18 14:00:00 26.8 28 Norte 51 Norte 0 1014.7 -0.4 56
2019-09-18 13:00:00 26.1 28 Norte 53 Nordeste 0 1014.9 0.1 58
2019-09-18 12:00:00 25.5 27 Norte 49 Norte 0 1015.1 0.5 60
2019-09-18 11:00:00 25.2 6 Oeste 11 Oeste 0 1015.1 1 58
2019-09-18 10:00:00 23.3 3 Sur 8 Este 0 1014.8 1 70
2019-09-18 09:00:00 19.4 7 Este 10 Este 0 1014.6 1.1 85
2019-09-18 08:00:00 17.7 6 Este 10 Este 0 1014.1 0.7 86
2019-09-18 07:00:00 18.9 6 Sudeste 27 Nordeste 0 1013.8 0.3 83
2019-09-18 06:00:00 21.6 17 Norte 30 Nordeste 0 1013.5 -0.3 76
2019-09-18 05:00:00 21.1 8 Este 27 Este 0 1013.4 -0.8 78
2019-09-18 04:00:00 21.9 15 Nordeste 33 Nordeste 0 1013.5 -1.3 75
2019-09-18 03:00:00 21.6 15 Nordeste 30 Norte 0 1013.8 -1.3 79
2019-09-18 02:00:00 20.4 6 Este 18 Este 0 1014.2 -1 81
2019-09-18 01:00:00 21.6 10 Este 23 Norte 0 1014.8 0.2 77
2019-09-18 00:00:00 22.4 13 Nordeste 27 Nordeste 0 1015.1 0.9 77
2019-09-17 23:00:00 22.6 15 Norte 36 Norte 0 1015.2 1.3 76
2019-09-17 22:00:00 22.7 22 Nordeste 45 Norte 0 1014.6 0.6 76
2019-09-17 21:00:00 23 23 Norte 41 Nordeste 0 1014.2 0.3 75
2019-09-17 20:00:00 23.6 22 Nordeste 42 Norte 0 1013.9 0.1 72
2019-09-15 17:00:00 25.9 26 Oeste 35 Oeste 0 1015 -0.3 71
2019-09-15 16:00:00 27.8 22 Oeste 30 Oeste 0 1015 -0.7 56
2019-09-15 15:00:00 27.2 24 Oeste 36 Oeste 0 1015.2 -1.4 59
2019-09-15 14:00:00 28.6 12 Noroeste 26 Noroeste 0 1015.3 -1.6 50
2019-09-15 13:00:00 29.5 8 Norte 22 Oeste 0 1015.7 -1.1 45
2019-09-15 12:00:00 24.9 13 Oeste 21 Oeste 0 1016.6 0.3 67
2019-09-15 11:00:00 23.9 11 Oeste 15 Oeste 0 1016.9 0.7 72
2019-09-15 10:00:00 22.4 10 Oeste 14 Oeste 0 1016.8 0.8 84
2019-09-15 09:00:00 19 4 Este 9 Este 0 1016.3 0.6 86
2019-09-15 08:00:00 17 6 Este 10 Sudeste 0 1016.2 0.4 87
2019-09-15 07:00:00 16.9 3 Este 12 Este 0 1016 -0.1 85
2019-09-15 06:00:00 17.7 8 Este 11 Este 0 1015.7 -0.6 86
2019-09-15 05:00:00 17.9 5 Sudeste 7 Sudeste 0 1015.8 -0.5 84
2019-09-15 04:00:00 19.1 5 Nordeste 10 Sudeste 0 1016.1 -0.6 84
2019-09-15 03:00:00 18.8 3 Sudeste 9 Este 0 1016.3 -0.5 82
2019-09-15 02:00:00 19.4 4 Este 10 Este 0 1016.3 -0.6 80
2019-09-15 01:00:00 20.1 6 Sudeste 10 Sudeste 0 1016.7 0.1 78
2019-09-15 00:00:00 20.8 3 Este 6 Sudeste 0 1016.8 1.1 74
2019-09-14 23:00:00 22.8 5 Nordeste 27 Norte 0 1016.9 1.4 71
2019-09-14 22:00:00 23.2 15 Nordeste 38 Norte 0 1016.6 1.2 72
2019-09-14 21:00:00 23.3 22 Nordeste 45 Norte 0 1015.7 0.4 74
2019-09-14 20:00:00 24 23 Nordeste 47 Nordeste 0 1015.5 0.4 72
2019-09-14 19:00:00 25.3 26 Norte 46 Nordeste 0 1015.4 0.1 68
2019-09-14 18:00:00 25.9 26 Norte 50 Nordeste 0 1015.3 -0.4 65
2019-09-14 17:00:00 26.3 26 Norte 50 Nordeste 0 1015.1 -0.8 64
2019-09-14 16:00:00 27.1 24 Nordeste 45 Norte 0 1015.3 -1.3 59
2019-09-14 15:00:00 26.9 25 Norte 45 Norte 0 1015.7 -1 60
2019-09-14 14:00:00 28.2 17 Norte 35 Norte 0 1015.9 -0.9 52
2019-09-14 13:00:00 26.3 21 Norte 41 Nordeste 0 1016.6 -0.1 60
2019-09-14 12:00:00 26 23 Norte 36 Nordeste 0 1016.7 0.6 63
2019-09-14 11:00:00 24.9 8 Oeste 15 Oeste 0 1016.8 0.9 58
2019-09-14 10:00:00 23.1 2 Noroeste 10 Sudeste 0 1016.7 1.2 57
2019-09-14 09:00:00 19.4 6 Sudeste 13 Este 0 1016.1 1 76
2019-09-14 08:00:00 17.1 9 Sudeste 14 Sudeste 0 1015.9 0.6 81
2019-09-14 07:00:00 17.7 11 Este 14 Sudeste 0 1015.5 0.1 81
2019-09-14 06:00:00 17.6 12 Sudeste 15 Sudeste 0 1015.1 -0.9 81
2019-09-14 05:00:00 18.5 8 Sudeste 13 Este 0 1015.3 -1.2 79
2019-09-14 04:00:00 20.2 10 Este 26 Nordeste 0 1015.4 -1.2 75
2019-09-14 03:00:00 22 21 Nordeste 33 Nordeste 0 1016 -0.8 73
2019-09-14 02:00:00 22.2 20 Nordeste 43 Nordeste 0 1016.5 -0.4 72
2019-09-14 01:00:00 22.6 25 Nordeste 51 Nordeste 0 1016.6 -0.2 67
2019-09-14 00:00:00 22.7 23 Nordeste 53 Nordeste 0 1016.8 0.4 65
2019-09-13 23:00:00 22.6 31 Nordeste 54 Nordeste 0 1016.9 1.1 72
2019-09-13 22:00:00 22.9 32 Nordeste 53 Nordeste 0 1016.8 1 70
2019-09-13 21:00:00 23.2 29 Nordeste 58 Nordeste 0 1016.4 0.9 72
2019-09-13 20:00:00 23.6 17 Nordeste 59 Nordeste 0 1015.8 0.9 70
2019-09-13 19:00:00 24.9 17 Norte 53 Nordeste 0 1015.8 0.8 63
2019-09-13 18:00:00 25.6 24 Norte 60 Nordeste 0 1015.5 0 61
2019-09-13 17:00:00 26.5 24 Norte 68 Este 0 1014.9 -1.2 56
2019-09-13 16:00:00 26.5 15 Sudoeste 66 Este 0 1015 -0.9 55
2019-09-13 15:00:00 25.8 24 Norte 56 Nordeste 0 1015.5 -0.7 58
2019-09-13 14:00:00 25.9 28 Norte 54 Norte 0 1016.1 0 61
2019-09-13 13:00:00 26 22 Nordeste 55 Nordeste 0 1015.9 -0.1 57
2019-09-13 12:00:00 25.6 22 Nordeste 68 Este 0 1016.2 0.4 59
2019-09-13 11:00:00 25.4 23 Sudeste 73 Este 0 1016.1 1 62
2019-09-13 10:00:00 24.2 30 Este 76 Este 0 1016 0.6 65
2019-09-13 09:00:00 22.9 32 Este 59 Este 0 1015.8 0.9 67
2019-09-13 08:00:00 22.4 29 Sudeste 62 Este 0 1015.1 0.1 69
2019-09-13 07:00:00 22.6 24 Nordeste 66 Este 0 1015.4 0 68
2019-09-13 06:00:00 22.2 30 Este 62 Este 0 1014.9 -1.1 75
2019-09-13 05:00:00 22.2 26 Sudeste 57 Este 0 1015 -1.9 72
2019-09-13 04:00:00 22.3 26 Sudeste 50 Este 0 1015.4 -1.6 73
2019-09-13 03:00:00 22.3 22 Sudeste 56 Este 0 1016 -1.2 71
2019-09-13 02:00:00 22.2 22 Nordeste 52 Este 0 1016.9 -0.6 74
2019-09-13 01:00:00 22.3 30 Nordeste 61 Nordeste 0 1017 0.1 70
2019-09-13 00:00:00 22.5 33 Nordeste 62 Nordeste 0 1017.2 1 70
2019-09-12 23:00:00 22.5 36 Nordeste 62 Nordeste 0 1017.5 1.8 70
2019-09-12 22:00:00 22.5 33 Nordeste 69 Nordeste 0 1016.9 1.2 72
2019-09-12 21:00:00 22.9 31 Este 73 Este 0 1016.2 0.4 66
2019-09-12 20:00:00 23.5 33 Este 72 Este 0 1015.7 -0.2 65
2019-09-12 19:00:00 25.2 30 Este 75 Este 0 1015.7 -0.1 57
2019-09-12 18:00:00 25.1 32 Nordeste 69 Nordeste 0 1015.8 -0.3 60
2019-09-12 17:00:00 26.1 22 Nordeste 72 Este 0 1015.9 -0.8 55
2019-09-12 16:00:00 26.7 21 Sudeste 74 Nordeste 0 1015.8 -1.4 55
2019-09-12 15:00:00 26.3 21 Este 71 Este 0 1016.1 -1.8 56
2019-09-12 14:00:00 27.4 22 Sudeste 70 Este 0 1016.7 -1 52
2019-09-12 13:00:00 26.7 31 Este 73 Nordeste 0 1017.2 0.2 53
2019-09-12 12:00:00 25.7 31 Este 80 Nordeste 0 1017.9 1.2 56
2019-09-12 11:00:00 25 34 Este 68 Este 0 1017.7 1.8 58
2019-09-12 10:00:00 23.8 30 Este 68 Este 0 1017 1.6 62
2019-09-12 09:00:00 22.3 27 Este 64 Este 0 1016.7 1.6 65
2019-09-12 08:00:00 21.4 33 Este 65 Este 0 1015.9 0.1 69
2019-09-12 07:00:00 21.5 30 Este 63 Este 0 1015.4 -0.7 68
2019-09-12 06:00:00 21.7 29 Este 71 Este 0 1015.1 -1.3 67
2019-09-12 05:00:00 21.7 19 Este 54 Este 0 1015.8 -0.9 62
2019-09-12 04:00:00 22 26 Este 56 Este 0 1016.1 -1 62
2019-09-12 03:00:00 22 29 Este 75 Este 0 1016.4 -1.1 62
2019-09-12 02:00:00 21.9 36 Este 78 Este 0 1016.7 -0.4 65
2019-09-12 01:00:00 22.2 29 Este 76 Este 0 1017.1 0.1 64
2019-09-12 00:00:00 22.5 29 Este 77 Este 0 1017.5 0.7 65
2019-09-11 23:00:00 22.5 36 Este 78 Este 0 1017.1 1 65
2019-09-11 22:00:00 22.6 32 Este 74 Este 0 1017 1 61
2019-09-11 21:00:00 23 28 Nordeste 71 Este 0 1016.8 1 61
2019-09-11 20:00:00 23.5 27 Nordeste 73 Este 0 1016.1 -0.4 58
2019-09-11 19:00:00 25 27 Este 95 Este 0 1016 -0.7 56
2019-09-11 18:00:00 26.1 26 Este 78 Este 0 1015.8 -1.1 57
2019-09-11 17:00:00 27.6 36 Este 76 Este 0 1016.5 -0.7 53
2019-09-11 16:00:00 28.1 33 Este 88 Este 0 1016.7 -1.5 51
2019-09-11 15:00:00 28.8 36 Este 79 Este 0 1016.9 -1.6 42
2019-09-11 14:00:00 26.9 24 Sudeste 76 Este 0 1017.2 -1.5 50
2019-09-11 13:00:00 26.8 26 Nordeste 73 Nordeste 0 1018.2 -0.5 49
2019-09-11 12:00:00 25.5 27 Nordeste 82 Nordeste 0 1018.5 0.3 53
2019-09-11 11:00:00 24.8 42 Nordeste 76 Este 0 1018.7 1.2 52
2019-09-11 10:00:00 23.8 37 Nordeste 77 Nordeste 0 1018.7 1.4 56
2019-09-11 09:00:00 22.8 41 Nordeste 71 Nordeste 0 1018.2 1.1 63
2019-09-11 08:00:00 22.3 40 Nordeste 83 Nordeste 0 1017.5 0.7 65
2019-09-11 07:00:00 22.4 39 Nordeste 71 Este 0 1017.3 0.5 61
2019-09-11 06:00:00 22.6 30 Nordeste 71 Nordeste 0 1017.1 -0.5 67
2019-09-11 05:00:00 22.7 41 Nordeste 85 Nordeste 0 1016.8 -1.7 62
2019-09-11 04:00:00 22.9 32 Nordeste 72 Nordeste 0 1016.8 -2 65
2019-09-11 03:00:00 22.5 36 Nordeste 66 Nordeste 0 1017.6 -1.7 68
2019-09-11 02:00:00 22.6 33 Nordeste 68 Nordeste 0 1018.5 -1 67
2019-09-11 01:00:00 22.7 42 Nordeste 71 Nordeste 0 1018.8 -0.1 69
2019-09-11 00:00:00 23.1 40 Nordeste 63 Nordeste 0 1019.3 1.1 65
2019-09-10 23:00:00 23.1 32 Nordeste 59 Nordeste 0 1019.5 1.6 66
2019-09-10 22:00:00 23.1 35 Nordeste 61 Nordeste 0 1018.9 1.4 70
2019-09-10 21:00:00 23.1 36 Norte 73 Nordeste 0 1018.2 0.5 73
2019-09-10 20:00:00 23.6 40 Nordeste 72 Nordeste 0 1017.9 0.2 71
2019-09-10 19:00:00 24.6 39 Norte 67 Norte 0 1017.5 -0.2 68
2019-09-10 18:00:00 25.6 37 Norte 66 Norte 0 1017.7 -0.5 65
2019-09-10 17:00:00 26.1 37 Norte 62 Norte 0 1017.7 -1.3 64
2019-09-10 16:00:00 26 42 Norte 64 Norte 0 1017.7 -2 63
2019-09-10 15:00:00 26.7 35 Norte 61 Norte 0 1018.2 -1.6 60
2019-09-10 14:00:00 27.1 26 Norte 46 Norte 0 1019 -0.8 53
2019-09-10 13:00:00 27 23 Norte 46 Norte 0 1019.7 0.2 54
2019-09-10 12:00:00 26.2 25 Norte 53 Nordeste 0 1019.8 0.6 56
2019-09-10 11:00:00 24.9 31 Nordeste 49 Nordeste 0 1019.8 1.6 61
2019-09-10 10:00:00 24.3 19 Nordeste 35 Norte 0 1019.5 1.7 62
2019-09-10 09:00:00 22.7 10 Nordeste 29 Este 0 1019.2 1.3 68
2019-09-10 08:00:00 20.7 15 Este 44 Nordeste 0 1018.2 0.5 69
2019-09-10 07:00:00 20.4 14 Este 30 Nordeste 0 1017.8 0.3 71
2019-09-10 06:00:00 19 7 Sudeste 11 Nordeste 0 1017.9 0.3 77
2019-09-10 05:00:00 20.6 6 Este 22 Nordeste 0 1017.7 -0.3 72
2019-09-10 04:00:00 21.8 11 Este 33 Nordeste 0 1017.5 -0.9 71
2019-09-10 03:00:00 21.7 14 Este 38 Nordeste 0 1017.6 -1 71
2019-09-10 02:00:00 22.1 13 Nordeste 38 Nordeste 0 1018 -0.7 70
2019-09-10 01:00:00 22.4 12 Nordeste 26 Norte 0 1018.4 0.5 69
2019-09-10 00:00:00 22.7 9 Este 33 Norte 0 1018.6 1.4 67
2019-09-09 23:00:00 23 16 Nordeste 42 Nordeste 0 1018.7 1.9 69
2019-09-09 22:00:00 23.2 22 Norte 42 Nordeste 0 1017.9 1.5 68
2019-09-09 21:00:00 23.4 25 Nordeste 44 Norte 0 1017.2 1.1 69
2019-09-09 20:00:00 24.1 24 Norte 52 Norte 0 1016.8 0.9 68
2019-09-09 19:00:00 25 31 Nordeste 61 Norte 0 1016.4 0.1 65
2019-09-09 18:00:00 26.3 32 Nordeste 52 Norte 0 1016.1 -0.5 59
2019-09-09 17:00:00 27.6 28 Norte 47 Nordeste 0 1015.9 -1.1 57
2019-09-09 16:00:00 28.1 24 Norte 44 Norte 0 1016.3 -0.8 54
2019-09-09 15:00:00 28.3 22 Norte 43 Norte 0 1016.6 -1.1 54
2019-09-09 14:00:00 27.5 27 Norte 52 Nordeste 0 1017 -0.5 56
2019-09-09 13:00:00 27.8 21 Norte 35 Norte 0 1017.1 -0.3 54
2019-09-09 12:00:00 26.8 21 Nordeste 45 Nordeste 0 1017.7 0.8 57
2019-09-09 11:00:00 25.1 23 Norte 35 Norte 0 1017.5 1.3 62
2019-09-09 10:00:00 23.8 4 Este 18 Noroeste 0 1017.4 1.8 67
2019-09-09 09:00:00 20.2 8 Sudeste 13 Este 0 1016.9 1.5 81
2019-09-09 08:00:00 18.2 6 Este 14 Este 0 1016.2 0.6 85
2019-09-09 07:00:00 18.4 10 Sudeste 18 Este 0 1015.6 0 84
2019-09-09 06:00:00 18.8 12 Sudeste 16 Sudeste 0 1015.4 -0.6 83
2019-09-09 05:00:00 19.2 8 Sudeste 19 Este 0 1015.6 -0.9 81
2019-09-09 04:00:00 20.3 7 Este 18 Nordeste 0 1015.6 -0.9 77
2019-09-09 03:00:00 21.2 5 Este 34 Nordeste 0 1016 -0.9 76
2019-09-09 02:00:00 22.6 22 Nordeste 49 Nordeste 0 1016.5 -0.6 76
2019-09-09 01:00:00 22.6 25 Nordeste 45 Nordeste 0 1016.5 0 78
2019-09-09 00:00:00 22.8 27 Nordeste 43 Nordeste 0 1016.9 1.1 75
2019-09-08 23:00:00 22.8 25 Nordeste 44 Nordeste 0 1017.1 1.8 76
2019-09-08 22:00:00 23.1 23 Nordeste 53 Nordeste 0 1016.5 1.3 74
2019-09-08 21:00:00 23.6 27 Nordeste 50 Nordeste 0 1015.8 0.6 73
2019-09-08 20:00:00 24.7 29 Nordeste 44 Nordeste 0 1015.3 0.2 64
2019-09-08 19:00:00 25.1 22 Nordeste 42 Nordeste 0 1015.2 -0.1 69
2019-09-08 18:00:00 25.1 20 Norte 44 Nordeste 0 1015.2 -0.3 68
2019-09-08 17:00:00 26.2 20 Norte 47 Nordeste 0 1015.1 -0.1 64
2019-09-08 16:00:00 27 24 Norte 49 Nordeste 0 1015.3 -0.1 64
2019-09-08 15:00:00 26.9 17 Norte 49 Nordeste 0 1015.5 -0.3 64
2019-09-08 14:00:00 27.3 24 Norte 49 Nordeste 0 1015.2 -0.8 63
2019-09-08 13:00:00 27.4 23 Nordeste 44 Nordeste 0 1015.4 -0.3 61
2019-09-08 12:00:00 26.7 13 Nordeste 33 Este 0 1015.8 0.5 64
2019-09-08 11:00:00 25.1 12 Este 27 Este 0 1016 1 68
2019-09-08 10:00:00 23.9 11 Norte 34 Este 0 1015.7 1.1 71
2019-09-08 09:00:00 23.5 15 Este 32 Este 0 1015.3 1 65
2019-09-08 08:00:00 22.5 13 Este 35 Este 0 1015 0.9 69
2019-09-08 07:00:00 22.8 12 Este 31 Este 0 1014.6 0.3 65
2019-09-08 06:00:00 22.8 21 Este 46 Este 0 1014.3 -0.3 70
2019-09-08 05:00:00 22.3 8 Este 43 Este 0 1014.1 -0.8 65
2019-09-08 04:00:00 22.3 17 Este 37 Este 0 1014.3 -1.1 71
2019-09-08 03:00:00 22.5 17 Este 45 Este 0 1014.6 -1.3 68
2019-09-08 02:00:00 22.6 25 Este 50 Este 0 1014.9 -1.4 67
2019-09-08 01:00:00 22.5 20 Este 42 Este 0 1015.4 -0.8 69
2019-09-08 00:00:00 22.7 15 Este 33 Este 0 1015.9 0.3 67
2019-09-07 23:00:00 22.9 16 Este 41 Nordeste 0 1016.3 1.2 65
2019-09-07 22:00:00 23.2 17 Este 40 Este 0 1016.2 1.6 62
2019-09-07 21:00:00 23.4 25 Nordeste 40 Nordeste 0 1015.6 0.9 62
2019-09-07 20:00:00 24.4 23 Nordeste 46 Nordeste 0 1015.1 0.5 55
2019-09-07 19:00:00 26.2 13 Sudeste 48 Este 0 1014.6 -0.4 51
2019-09-07 18:00:00 26.9 21 Nordeste 48 Norte 0 1014.7 -0.9 50
2019-09-07 17:00:00 26.5 30 Norte 52 Nordeste 0 1014.6 -1.3 53
2019-09-07 16:00:00 26.4 22 Norte 47 Nordeste 0 1015 -1.1 50
2019-09-07 15:00:00 27.4 22 Norte 43 Nordeste 0 1015.6 -0.6 48
2019-09-07 14:00:00 27 13 Nordeste 45 Noroeste 0 1015.9 -0.1 47
2019-09-07 13:00:00 27 18 Nordeste 49 Este 0 1016.1 0.4 49
2019-09-07 12:00:00 27.3 13 Este 40 Este 0 1016.2 0.7 48
2019-09-07 11:00:00 26.6 20 Este 50 Este 0 1016 0.7 49
2019-09-07 10:00:00 25.2 20 Este 35 Este 0 1015.7 0.7 54
2019-09-07 09:00:00 23.6 15 Sudeste 42 Sudeste 0 1015.5 0.9 65
2019-09-07 08:00:00 22.6 19 Este 38 Este 0 1015.3 0.9 63
2019-09-07 07:00:00 22.8 18 Este 62 Este 0 1015 0 61
2019-09-07 06:00:00 22.8 15 Este 44 Este 0 1014.6 -0.9 62
2019-09-07 05:00:00 22.5 18 Este 50 Este 0 1014.4 -1 63
2019-09-07 04:00:00 22.7 17 Nordeste 56 Nordeste 0 1015 -0.7 62
2019-09-07 03:00:00 22.7 27 Nordeste 56 Nordeste 0 1015.5 -0.8 65
2019-09-07 02:00:00 23 28 Nordeste 47 Nordeste 0 1015.4 -0.9 65
2019-09-07 01:00:00 23 23 Este 53 Este 0 1015.7 0 67
2019-09-07 00:00:00 23.3 18 Nordeste 34 Este 0 1016.3 0.8 66
2019-09-06 23:00:00 23.5 21 Este 42 Este 0 1016.3 1.1 62
2019-09-06 22:00:00 23.4 27 Este 53 Este 0 1015.7 0.6 62
2019-09-06 21:00:00 23.7 23 Este 49 Este 0 1015.5 0.4 62
2019-09-06 20:00:00 24.6 23 Este 48 Este 0 1015.2 -0.1 63
2019-09-06 19:00:00 26.2 22 Este 48 Este 0 1015.1 -0.1 58
2019-09-06 18:00:00 27.5 21 Este 48 Nordeste 0 1015.1 -0.7 58
2019-09-06 17:00:00 27.5 14 Este 54 Nordeste 0 1015.3 -0.7 55
2019-09-06 16:00:00 28 16 Nordeste 50 Nordeste 0 1015.2 -0.9 55
2019-09-06 15:00:00 27.6 17 Norte 46 Este 0 1015.8 -0.1 60
2019-09-06 14:00:00 27.2 12 Sur 41 Nordeste 0 1016 -0.2 58
2019-09-06 13:00:00 27.2 16 Nordeste 46 Este 0 1016.1 0.5 58
2019-09-06 12:00:00 27.5 18 Sudeste 40 Este 0 1015.9 1 57
2019-09-06 11:00:00 26.9 15 Este 42 Este 0 1016.2 1.7 59
2019-09-06 10:00:00 25.4 20 Este 49 Este 0 1015.6 1.4 62
2019-09-06 09:00:00 23.5 21 Este 42 Este 0 1014.9 0.8 71
2019-09-06 08:00:00 22.9 18 Este 40 Sudeste 0 1014.5 0.3 71
2019-09-06 07:00:00 23.1 18 Este 35 Este 0 1014.2 -0.2 65
2019-09-06 06:00:00 23.6 14 Este 40 Este 0 1014.1 -0.8 60
2019-09-06 05:00:00 23.1 17 Este 43 Este 0 1014.2 -1.1 62
2019-09-06 04:00:00 23.2 19 Este 42 Este 0 1014.4 -1.1 61
2019-09-06 03:00:00 23.5 19 Este 44 Este 0 1014.9 -1 57
2019-09-06 02:00:00 23.3 19 Este 42 Este 0 1015.3 -0.7 61
2019-09-06 01:00:00 23 23 Sudeste 47 Este 0 1015.5 -0.3 68
2019-09-06 00:00:00 23.5 21 Este 41 Este 0 1015.9 0.6 71
2019-09-05 23:00:00 23.4 19 Sudeste 40 Este 0 1016 1 66
2019-09-05 22:00:00 23.7 21 Este 41 Este 0 1015.8 1 57
2019-09-05 21:00:00 24.1 15 Este 39 Este 0 1015.3 0.4 56
2019-09-05 20:00:00 25.3 15 Este 48 Nordeste 0 1015 -0.1 58
2019-09-05 19:00:00 25.9 12 Nordeste 41 Nordeste 0 1014.8 -0.6 58
2019-09-05 18:00:00 27.3 15 Norte 41 Norte 0 1014.9 -0.9 46
2019-09-05 17:00:00 27.3 14 Norte 42 Nordeste 0 1015.1 -1.1 57
2019-09-05 16:00:00 27.1 18 Norte 44 Nordeste 0 1015.4 -0.4 55
2019-09-05 15:00:00 28 14 Noroeste 32 Nordeste 0 1015.8 -0.5 41
2019-09-05 14:00:00 27.4 18 Norte 50 Nordeste 0 1016.2 0 49
2019-09-05 13:00:00 26.1 22 Norte 48 Norte 0 1015.8 -0.4 52
2019-09-05 12:00:00 26 18 Nordeste 51 Nordeste 0 1016.3 0.3 58
2019-09-05 11:00:00 24.7 20 Nordeste 48 Nordeste 0 1016.2 0.5 64
2019-09-05 10:00:00 24.8 20 Nordeste 48 Este 0 1016.2 0.3 59
2019-09-05 09:00:00 23.1 14 Este 47 Este 0 1016 0.5 66
2019-09-05 08:00:00 22.1 23 Este 49 Este 0 1015.7 0.4 74
2019-09-05 07:00:00 22.1 19 Este 50 Este 0 1015.9 0.6 76
2019-09-05 06:00:00 22 24 Este 62 Este 0 1015.5 -0.5 71
2019-09-05 05:00:00 22.2 23 Este 59 Este 0 1015.3 -1 71
2019-09-05 04:00:00 22.3 22 Este 64 Este 0 1015.3 -1.7 69
2019-09-05 03:00:00 22.5 26 Nordeste 54 Nordeste 0 1016 -1.4 69
2019-09-05 02:00:00 22.5 23 Este 57 Este 0 1016.3 -1.3 65
2019-09-05 01:00:00 22.3 28 Nordeste 52 Nordeste 0 1017 -0.4 66
2019-09-05 00:00:00 22.3 27 Nordeste 54 Nordeste 0 1017.4 0.5 68
2019-09-04 23:00:00 22.5 28 Nordeste 52 Nordeste 0 1017.6 1.3 66
2019-09-04 22:00:00 22.7 30 Nordeste 45 Nordeste 0 1017.4 0.6 70
2019-09-04 21:00:00 22.8 27 Nordeste 51 Norte 0 1016.9 0.3 72
2019-09-04 20:00:00 23.3 29 Nordeste 49 Nordeste 0 1016.3 -0.6 70
2019-09-04 19:00:00 24.3 27 Norte 49 Norte 0 1016.8 -0.2 68
2019-09-04 18:00:00 24.6 28 Norte 49 Nordeste 0 1016.6 -0.9 63
2019-09-04 17:00:00 25.1 29 Norte 59 Norte 0 1016.9 -1.4 63
2019-09-04 16:00:00 25.5 30 Norte 55 Norte 0 1017 -1.4 62
2019-09-04 15:00:00 25.3 28 Norte 56 Nordeste 0 1017.5 -1.2 62
2019-09-04 14:00:00 25.9 27 Norte 46 Nordeste 0 1018.3 -0.3 54
2019-09-04 13:00:00 25.8 21 Norte 44 Nordeste 0 1018.4 -0.1 56
2019-09-04 12:00:00 25.1 19 Norte 49 Nordeste 0 1018.7 0.5 55
2019-09-04 11:00:00 25.1 19 Nordeste 57 Este 0 1018.6 1 57
2019-09-04 10:00:00 24 23 Nordeste 45 Este 0 1018.5 1.2 56
2019-09-04 09:00:00 22.6 22 Este 45 Este 0 1018.2 1.3 71
2019-09-04 08:00:00 21.8 23 Nordeste 46 Nordeste 0 1017.6 0.9 72
2019-09-04 07:00:00 22 20 Nordeste 46 Nordeste 0 1017.3 0.3 68
2019-09-04 06:00:00 22.1 26 Nordeste 45 Nordeste 0 1016.9 -0.5 65
2019-09-04 05:00:00 21.7 14 Nordeste 46 Nordeste 0 1016.7 -1.2 65
2019-09-04 04:00:00 22 25 Nordeste 44 Nordeste 0 1017 -1.1 70
2019-09-04 03:00:00 22.3 23 Nordeste 48 Este 0 1017.4 -0.7 68
2019-09-04 02:00:00 22.3 17 Nordeste 45 Nordeste 0 1017.9 0 65
2019-09-04 01:00:00 22.4 18 Nordeste 39 Nordeste 0 1018.1 0.6 63
2019-09-04 00:00:00 22.5 23 Nordeste 47 Nordeste 0 1018.1 1.1 65
2019-09-03 23:00:00 22.5 26 Nordeste 49 Nordeste 0 1017.9 1.2 68
2019-09-03 22:00:00 22.5 29 Nordeste 53 Nordeste 0 1017.5 0.8 72
2019-09-03 21:00:00 22.7 28 Nordeste 51 Norte 0 1017 0.2 72
2019-09-03 20:00:00 23.3 31 Norte 55 Norte 0 1016.7 -0.5 70
2019-09-03 19:00:00 24 33 Norte 55 Norte 0 1016.7 -0.6 67
2019-09-03 18:00:00 24.9 32 Norte 48 Norte 0 1016.8 -0.9 62
2019-09-03 17:00:00 25.9 28 Norte 45 Norte 0 1017.2 -0.8 59
2019-09-03 16:00:00 25.7 26 Norte 48 Nordeste 0 1017.3 -0.7 59
2019-09-03 15:00:00 25.5 28 Norte 47 Norte 0 1017.7 -0.8 62
2019-09-03 14:00:00 25.1 28 Norte 44 Nordeste 0 1018 0 63
2019-09-03 13:00:00 25.2 24 Norte 44 Norte 0 1018 0.5 64
2019-09-03 12:00:00 25.3 22 Norte 38 Norte 0 1018.5 1.9 64
2019-09-03 11:00:00 24 19 Norte 33 Nordeste 0 1018 1.8 66
2019-09-03 10:00:00 23.5 12 Nordeste 31 Nordeste 0 1017.5 1.6 66
2019-09-03 09:00:00 21.2 9 Este 17 Este 0 1016.6 0.9 68
2019-09-03 08:00:00 18.5 10 Sudeste 28 Nordeste 0 1016.2 0.8 74
2019-09-03 07:00:00 18.6 13 Sudeste 23 Sudeste 0 1015.9 0.6 73
2019-09-03 06:00:00 18.8 10 Sudeste 16 Este 0 1015.7 0.1 73
2019-09-03 05:00:00 19.5 9 Este 27 Este 0 1015.4 -0.2 70
2019-09-03 04:00:00 21.8 15 Nordeste 38 Nordeste 0 1015.3 -0.4 67
2019-09-03 03:00:00 22.2 23 Nordeste 53 Nordeste 0 1015.6 -0.2 66
2019-09-03 02:00:00 22.4 26 Nordeste 53 Nordeste 0 1015.6 -0.1 64
2019-09-03 01:00:00 22.3 31 Nordeste 59 Nordeste 0 1015.7 0.5 67
2019-09-03 00:00:00 22.5 26 Nordeste 52 Nordeste 0 1015.8 1 63
2019-09-02 23:00:00 22.7 29 Nordeste 52 Nordeste 0 1015.7 1.2 63
2019-09-02 22:00:00 23 31 Nordeste 53 Nordeste 0 1015.2 1 60
2019-09-02 21:00:00 23.4 31 Nordeste 57 Nordeste 0 1014.8 0.6 58
2019-09-02 20:00:00 24.4 24 Nordeste 56 Nordeste 0 1014.5 0.2 54
2019-09-02 19:00:00 25.3 30 Nordeste 58 Nordeste 0 1014.2 -0.5 56
2019-09-02 18:00:00 25.2 27 Norte 54 Nordeste 0 1014.2 -1 58
2019-09-02 17:00:00 25.7 27 Norte 50 Nordeste 0 1014.3 -1.4 55
2019-09-02 16:00:00 25.7 25 Norte 48 Nordeste 0 1014.7 -1.1 52
2019-09-02 15:00:00 26.1 21 Norte 50 Norte 0 1015.2 -1.1 50
2019-09-02 14:00:00 25.4 20 Norte 50 Nordeste 0 1015.7 -0.4 55
2019-09-02 13:00:00 25.7 12 Norte 43 Nordeste 0 1015.8 0.4 58
2019-09-02 12:00:00 25 14 Norte 36 Nordeste 0 1016.3 1.6 58
2019-09-02 11:00:00 25 7 Norte 33 Este 0 1016.1 1.6 56
2019-09-02 10:00:00 24.2 8 Norte 28 Este 0 1015.4 1.5 57
2019-09-02 09:00:00 22.2 10 Sudeste 21 Sudeste 0 1014.7 1.6 65
2019-09-02 08:00:00 19.6 7 Este 36 Nordeste 0 1014.5 0.9 74
2019-09-02 07:00:00 21.7 21 Nordeste 55 Nordeste 0 1013.9 0.4 67
2019-09-02 06:00:00 21.8 28 Nordeste 56 Nordeste 0 1013.1 -1.2 73
2019-09-02 05:00:00 21.9 29 Nordeste 61 Este 0 1013.6 -0.6 75
2019-09-02 04:00:00 22.5 23 Nordeste 63 Nordeste 0 1013.5 -0.7 64
2019-09-02 03:00:00 22.5 29 Nordeste 62 Nordeste 0 1014.3 -0.1 63
2019-09-02 02:00:00 22.4 40 Nordeste 71 Nordeste 0 1014.2 -0.1 68
2019-09-02 01:00:00 22.4 40 Nordeste 73 Nordeste 0 1014.2 0.3 68
2019-09-02 00:00:00 22.4 39 Nordeste 69 Nordeste 0 1014.4 1.2 67
2019-09-01 23:00:00 22.8 41 Nordeste 66 Nordeste 0 1014.3 1.2 64
2019-09-01 22:00:00 22.8 37 Nordeste 68 Nordeste 0 1013.9 0.7 65
2019-09-01 21:00:00 23.1 34 Nordeste 72 Nordeste 0 1013.2 -0.3 63
2019-09-01 20:00:00 23.8 39 Nordeste 67 Nordeste 0 1013.1 -0.2 62
2019-09-01 19:00:00 25.2 36 Nordeste 64 Norte 0 1013.2 -0.3 57
2019-09-01 18:00:00 25.6 36 Norte 71 Norte 0 1013.5 -0.8 56
2019-09-01 17:00:00 26 37 Norte 70 Norte 0 1013.3 -1.5 56
2019-09-01 16:00:00 27.4 36 Norte 66 Nordeste 0 1013.5 -1.2 50
2019-09-01 15:00:00 25.8 33 Norte 66 Nordeste 0 1014.3 -0.5 59
2019-09-01 14:00:00 26.1 33 Nordeste 60 Nordeste 0 1014.8 -0.3 56
2019-09-01 13:00:00 25.5 37 Norte 66 Nordeste 0 1014.7 -0.1 61
2019-09-01 12:00:00 25.3 40 Norte 77 Nordeste 0 1014.8 0.7 59
2019-09-01 11:00:00 25.2 24 Nordeste 58 Nordeste 0 1015.1 1.1 61
2019-09-01 10:00:00 23.9 27 Nordeste 65 Nordeste 0 1014.8 1.2 68
2019-09-01 09:00:00 23 35 Nordeste 72 Nordeste 0 1014.1 1 68
2019-09-01 08:00:00 22.5 38 Nordeste 71 Nordeste 0 1014 0.7 67
2019-09-01 07:00:00 22.3 41 Nordeste 66 Nordeste 0 1013.6 0.2 68
2019-09-01 06:00:00 22.4 40 Nordeste 77 Nordeste 0 1013.1 -0.9 70
2019-09-01 05:00:00 22.5 43 Nordeste 76 Nordeste 0 1013.3 -1 70
2019-09-01 04:00:00 22.4 45 Nordeste 71 Nordeste 0 1013.4 -1.5 70
2019-09-01 03:00:00 22.6 45 Nordeste 78 Nordeste 0 1014 -1 71
2019-09-01 02:00:00 22.6 45 Nordeste 71 Nordeste 0 1014.3 -0.7 71
2019-09-01 01:00:00 22.5 43 Nordeste 68 Nordeste 0 1014.9 0.2 72
2019-09-01 00:00:00 22.5 37 Nordeste 72 Nordeste 0 1015 0.6 74
2019-08-31 23:00:00 22.8 38 Nordeste 67 Nordeste 0 1015 0.9 75
2019-08-31 22:00:00 22.9 41 Nordeste 70 Nordeste 0 1014.7 0.8 77
2019-08-31 21:00:00 23 38 Nordeste 67 Nordeste 0 1014.4 0.4 75
2019-08-31 20:00:00 23.4 43 Nordeste 67 Nordeste 0 1014.1 -0.2 74
2019-08-31 19:00:00 24.2 44 Nordeste 71 Nordeste 0 1013.9 -1 68
2019-08-31 18:00:00 25.3 40 Nordeste 70 Norte 0 1014 -1 62
2019-08-31 17:00:00 26 31 Norte 63 Nordeste 0 1014.3 -1.4 59
2019-08-31 16:00:00 26.1 35 Norte 63 Nordeste 0 1014.9 -0.9 63
2019-08-31 15:00:00 26.8 39 Norte 64 Nordeste 0 1015 -0.3 59
2019-08-31 14:00:00 26.7 33 Norte 59 Nordeste 0 1015.7 0.5 58
2019-08-31 13:00:00 25.9 37 Nordeste 73 Nordeste 0 1015.8 0.7 61
2019-08-31 12:00:00 26.1 34 Nordeste 64 Nordeste 0 1015.3 0.5 61
2019-08-31 11:00:00 25.4 32 Nordeste 58 Nordeste 0 1015.2 0.7 63
2019-08-31 10:00:00 24.2 28 Norte 55 Nordeste 0 1015.1 0.5 64
2019-08-31 09:00:00 23.4 16 Este 50 Norte 0 1014.8 0.2 66
2019-08-31 08:00:00 22.1 25 Nordeste 50 Este 0 1014.5 -0.2 72
2019-08-31 07:00:00 22 19 Nordeste 45 Nordeste 0 1014.6 -0.1 72
2019-08-31 06:00:00 22.1 24 Nordeste 54 Nordeste 0 1014.6 -0.9 73
2019-08-31 05:00:00 22.3 26 Nordeste 54 Norte 0 1014.7 -1.3 72
2019-08-31 04:00:00 22.5 24 Nordeste 50 Nordeste 0 1014.7 -1.3 71
2019-08-31 03:00:00 22.5 24 Nordeste 50 Nordeste 0 1015.5 -0.8 72
2019-08-31 02:00:00 22.8 28 Nordeste 50 Nordeste 0 1016 -0.8 72
2019-08-31 01:00:00 22.9 26 Nordeste 53 Norte 0 1016 0.1 73
2019-08-31 00:00:00 23.2 27 Nordeste 48 Nordeste 0 1016.3 1.4 70
2019-08-30 23:00:00 23.1 30 Nordeste 48 Nordeste 0 1016.8 2.5 72
2019-08-30 22:00:00 23.3 32 Nordeste 55 Nordeste 0 1015.9 1.6 70
2019-08-30 21:00:00 23.4 23 Nordeste 64 Nordeste 0 1014.9 0.2 71
2019-08-30 20:00:00 23.4 35 Nordeste 61 Norte 0 1014.3 -0.6 73
2019-08-30 19:00:00 25.2 33 Norte 56 Nordeste 0 1014.3 -0.4 64
2019-08-30 18:00:00 26.2 26 Nordeste 58 Nordeste 0 1014.7 0.1 63
2019-08-30 17:00:00 25.2 34 Nordeste 59 Norte 0 1014.9 -0.4 66
2019-08-30 16:00:00 25.1 38 Norte 64 Nordeste 0 1014.7 -1 66
2019-08-30 15:00:00 26.6 32 Nordeste 64 Nordeste 0 1014.6 -1.4 62
2019-08-30 14:00:00 26.8 36 Nordeste 60 Nordeste 0 1015.3 -0.7 61
2019-08-30 13:00:00 25.3 34 Norte 59 Norte 0 1015.7 -0.9 66
2019-08-30 12:00:00 25.4 30 Norte 54 Nordeste 0 1016 -0.6 66
2019-08-30 11:00:00 25.5 23 Nordeste 41 Norte 0 1016 -0.8 64
2019-08-30 10:00:00 24.6 5 Este 8 Sudeste 0 1016.6 1.1 65
2019-08-30 09:00:00 21.1 6 Este 12 Sudeste 0 1016.6 1.9 79
2019-08-30 08:00:00 18.5 7 Este 9 Este 0 1016.8 2.4 84
2019-08-30 07:00:00 18.7 4 Este 16 Sudeste 0 1015.5 1.2 80
2019-08-30 06:00:00 20.4 6 Sudeste 36 Nordeste 0 1014.7 0.2 75
2019-08-30 05:00:00 21.4 12 Este 40 Norte 0 1014.4 -0.2 77
2019-08-30 04:00:00 22.3 23 Nordeste 57 Nordeste 0 1014.3 -0.7 76
2019-08-30 03:00:00 22.1 20 Nordeste 40 Nordeste 0 1014.5 -0.8 73
2019-08-30 02:00:00 21 5 Sudeste 16 Nordeste 0 1014.6 -0.5 76
2019-08-30 01:00:00 21.5 4 Este 28 Nordeste 0 1015 0.4 72
2019-08-30 00:00:00 23.3 17 Nordeste 45 Nordeste 0 1015.3 1 69
2019-08-29 23:00:00 23.3 27 Nordeste 46 Nordeste 0 1015.1 1.5 70
2019-08-29 22:00:00 23.2 28 Nordeste 53 Norte 0 1014.6 2 72
2019-08-29 21:00:00 23.6 31 Norte 60 Nordeste 0 1014.3 1.3 70
2019-08-29 20:00:00 24 36 Norte 63 Nordeste 0 1013.6 0 70
2019-08-29 19:00:00 25 36 Nordeste 63 Nordeste 0 1012.6 -1.7 67
2019-08-29 18:00:00 25.9 30 Nordeste 63 Norte 0 1013 -1.5 64
2019-08-29 17:00:00 26.1 37 Nordeste 62 Nordeste 0 1013.6 -1.2 64
2019-08-29 16:00:00 26.6 36 Norte 59 Norte 0 1014.3 -0.7 62
2019-08-29 15:00:00 26.4 39 Norte 67 Norte 0 1014.5 -0.2 63
2019-08-29 14:00:00 26.5 35 Norte 57 Norte 0 1014.8 0 63
2019-08-29 13:00:00 26.5 31 Nordeste 56 Nordeste 0 1015 0.5 61
2019-08-29 12:00:00 26.2 26 Nordeste 49 Nordeste 0 1014.7 0.6 62
2019-08-29 11:00:00 25.1 24 Norte 44 Norte 0 1014.8 0.9 65
2019-08-29 10:00:00 23.7 21 Nordeste 37 Nordeste 0 1014.5 0.9 69
2019-08-29 09:00:00 21.3 10 Este 25 Nordeste 0 1014.1 0.7 75
2019-08-29 08:00:00 18.6 4 Este 12 Sudeste 0 1013.9 0.2 81
2019-08-29 07:00:00 19.5 12 Sudeste 26 Nordeste 0 1013.6 -0.5 79
2019-08-29 06:00:00 21.3 15 Este 35 Nordeste 0 1013.4 -1.2 74
2019-08-29 05:00:00 21.7 13 Este 42 Norte 0 1013.7 -1.2 73
2019-08-29 04:00:00 22.4 16 Este 51 Nordeste 0 1014.1 -1 70
2019-08-29 03:00:00 22.6 27 Nordeste 51 Nordeste 0 1014.6 -0.5 70
2019-08-29 02:00:00 22.6 33 Nordeste 57 Nordeste 0 1014.9 0.1 72
2019-08-29 01:00:00 22.9 34 Nordeste 64 Nordeste 0 1015.1 1 71
2019-08-29 00:00:00 22.9 27 Nordeste 62 Nordeste 0 1015.1 1.5 71
2019-08-28 23:00:00 22.9 35 Nordeste 67 Nordeste 0 1014.8 1.7 72
2019-08-28 22:00:00 22.8 42 Nordeste 64 Nordeste 0 1014.1 1.3 74
2019-08-28 21:00:00 22.9 40 Nordeste 68 Nordeste 0 1013.6 0.5 77
2019-08-28 20:00:00 23.7 35 Nordeste 62 Nordeste 0 1013.1 0.1 72
2019-08-28 19:00:00 24.7 38 Norte 67 Nordeste 0 1012.8 -0.6 67
2019-08-28 18:00:00 25.5 36 Nordeste 63 Nordeste 0 1013.1 -0.5 65
2019-08-28 17:00:00 25.7 36 Norte 64 Norte 0 1013 -0.6 65
2019-08-28 16:00:00 26.2 35 Norte 60 Norte 0 1013.4 -0.7 64
2019-08-28 15:00:00 26.5 33 Norte 64 Norte 0 1013.6 -1 59
2019-08-28 14:00:00 25.8 38 Norte 62 Nordeste 0 1013.6 -0.4 62
2019-08-28 13:00:00 26.9 27 Norte 49 Nordeste 0 1014.1 0.6 59
2019-08-28 12:00:00 26.4 12 Norte 33 Oeste 0 1014.6 1.4 60
2019-08-28 11:00:00 25.8 15 Norte 28 Nordeste 0 1014 0.7 59
2019-08-28 10:00:00 24.6 10 Nordeste 23 Norte 0 1013.5 0.4 62
2019-08-28 09:00:00 22 9 Sudeste 26 Este 0 1013.2 0.2 70
2019-08-28 08:00:00 20.8 11 Este 38 Nordeste 0 1013.3 0.6 75
2019-08-28 07:00:00 21.3 18 Este 48 Nordeste 0 1013.1 0 74
2019-08-28 06:00:00 22 25 Nordeste 51 Norte 0 1013 -0.2 72
2019-08-28 05:00:00 22.2 24 Nordeste 48 Norte 0 1012.7 -1 75
2019-08-28 04:00:00 22.2 20 Nordeste 44 Norte 0 1013.1 -1 74
2019-08-28 03:00:00 22.2 24 Nordeste 44 Norte 0 1013.2 -1.1 76
2019-08-28 02:00:00 22.5 22 Nordeste 47 Norte 0 1013.7 -0.5 75
2019-08-28 01:00:00 22.7 25 Nordeste 49 Nordeste 0 1014.1 0 75
2019-08-28 00:00:00 22.9 27 Nordeste 45 Norte 0 1014.3 0.9 72
2019-08-27 23:00:00 23.1 21 Norte 38 Norte 0 1014.2 1.1 73
2019-08-27 22:00:00 23.2 23 Nordeste 40 Norte 0 1014.1 1.2 74
2019-08-27 21:00:00 23.3 24 Norte 50 Norte 0 1013.4 0.4 75
2019-08-27 20:00:00 23.8 28 Norte 53 Nordeste 0 1013.1 0.1 72
2019-08-27 19:00:00 25.2 32 Norte 51 Norte 0 1012.9 -0.6 68
2019-08-27 18:00:00 26.8 26 Norte 48 Norte 0 1013 -0.5 62
2019-08-27 17:00:00 27.8 27 Nordeste 44 Nordeste 0 1013 -0.3 58
2019-08-27 16:00:00 27.6 14 Norte 42 Norte 0 1013.5 -0.6 56
2019-08-27 15:00:00 26.5 28 Norte 54 Nordeste 0 1013.5 -0.9 61
2019-08-27 14:00:00 25.9 30 Norte 52 Nordeste 0 1013.3 -0.4 61
2019-08-27 13:00:00 27.5 16 Nordeste 40 Norte 0 1014.1 0.8 56
2019-08-27 12:00:00 26.6 25 Norte 46 Nordeste 0 1014.4 1.3 59
2019-08-27 11:00:00 26.3 22 Nordeste 39 Nordeste 0 1013.7 1.2 57
2019-08-27 10:00:00 24.9 16 Nordeste 42 Norte 0 1013.3 1.5 62
2019-08-27 09:00:00 23.5 11 Nordeste 31 Nordeste 0 1013.1 1.6 67
2019-08-27 08:00:00 22.9 9 Nordeste 35 Nordeste 0 1012.5 1 68
2019-08-27 07:00:00 22.8 24 Nordeste 46 Nordeste 0 1011.8 0 70
2019-08-27 06:00:00 22.9 18 Nordeste 40 Norte 0 1011.5 -0.7 69
2019-08-27 05:00:00 22.5 6 Este 33 Nordeste 0 1011.5 -1.2 69
2019-08-27 04:00:00 23 21 Nordeste 38 Nordeste 0 1011.8 -1.3 70
2019-08-27 03:00:00 22.8 10 Nordeste 31 Nordeste 0 1012.2 -1 70
2019-08-27 02:00:00 23.1 19 Nordeste 33 Nordeste 0 1012.7 -0.5 71
2019-08-27 01:00:00 23.8 16 Norte 41 Nordeste 0 1013.1 0.3 66
2019-08-27 00:00:00 23.8 24 Nordeste 43 Nordeste 0 1013.2 1.1 68
2019-08-26 23:00:00 24 23 Norte 45 Norte 0 1013.2 1.7 66
2019-08-26 22:00:00 24.2 26 Norte 49 Norte 0 1012.8 1.6 65
2019-08-26 21:00:00 24.9 27 Norte 65 Nordeste 0 1012.1 0.9 63
2019-08-26 20:00:00 25.1 35 Nordeste 65 Norte 0 1011.5 0.1 63
2019-08-26 19:00:00 25.4 35 Nordeste 63 Norte 0 1011.2 0.3 65
2019-08-26 18:00:00 26.4 34 Norte 59 Norte 0 1011.2 -0.1 61
2019-08-26 17:00:00 26.4 35 Norte 61 Norte 0 1011.4 -0.5 62
2019-08-26 16:00:00 28.6 34 Norte 57 Nordeste 0 1010.9 -1.8 54
2019-08-26 15:00:00 28.8 31 Norte 47 Norte 0 1011.3 -1.7 56
2019-08-26 14:00:00 29.7 16 Oeste 28 Oeste 0 1011.9 -1 51
2019-08-26 13:00:00 29.2 10 Noroeste 24 Norte 0 1012.7 0.1 51
2019-08-26 12:00:00 28.3 15 Norte 23 Norte 0 1013 1.4 55
2019-08-26 11:00:00 25.9 13 Norte 27 Nordeste 0 1012.9 1.6 63
2019-08-26 10:00:00 25.6 13 Norte 28 Norte 0 1012.6 1.2 63
2019-08-26 09:00:00 24 4 Este 16 Nordeste 0 1011.6 0.3 74
2019-08-26 08:00:00 23.1 8 Este 11 Este 0 1011.3 0.1 76
2019-08-26 07:00:00 23.7 11 Este 21 Nordeste 0 1011.4 -0.4 74
2019-08-26 06:00:00 23.5 8 Nordeste 39 Nordeste 0 1011.3 -1.1 76
2019-08-26 05:00:00 23.4 17 Nordeste 29 Nordeste 0 1011.2 -0.3 78
2019-08-26 04:00:00 23 3 Este 34 Norte 0 1011.8 0.2 77
2019-08-26 03:00:00 23.9 18 Norte 30 Norte 0 1012.4 1.4 77
2019-08-26 02:00:00 25.4 16 Nordeste 36 Nordeste 0 1011.5 0.7 59
2019-08-26 01:00:00 26.1 15 Oeste 44 Nordeste 0 1011.6 1.3 62
2019-08-26 00:00:00 26.4 24 Nordeste 41 Nordeste 0 1011 0.8 49
2019-08-25 23:00:00 25.7 24 Norte 40 Norte 0 1010.8 0.9 56
2019-08-25 22:00:00 24.8 4 Sudeste 45 Nordeste 0 1010.3 0.3 69
2019-08-25 21:00:00 25.4 10 Nordeste 38 Nordeste 0 1010.2 0.3 68
2019-08-25 20:00:00 25.3 24 Nordeste 53 Nordeste 0 1009.9 -0.8 69
2019-08-25 19:00:00 25.4 23 Nordeste 57 Norte 0 1010 -0.8 70
2019-08-25 18:00:00 25 25 Nordeste 45 Nordeste 0 1009.9 -1.3 74
2019-08-25 17:00:00 24.9 20 Nordeste 61 Norte 0 1010.7 -0.6 75
2019-08-25 16:00:00 23.8 31 Nordeste 54 Norte 0.6 1010.8 -0.5 83
2019-08-25 15:00:00 24.5 27 Nordeste 49 Nordeste 0.2 1011.2 -0.4 76
2019-08-25 14:00:00 25.4 27 Nordeste 59 Norte 0 1011.3 0.1 73
2019-08-25 13:00:00 26.2 39 Norte 66 Norte 0 1011.3 0 69
2019-08-25 12:00:00 27.4 21 Nordeste 39 Nordeste 0 1011.6 0.3 58
2019-08-25 11:00:00 27.6 19 Nordeste 32 Norte 0 1011.2 0.3 60
2019-08-25 10:00:00 26.4 13 Este 26 Nordeste 0 1011.3 0.8 64
2019-08-25 09:00:00 24.3 13 Nordeste 23 Nordeste 0 1011.3 0.8 73
2019-08-25 08:00:00 22.2 3 Nordeste 8 Sur 0 1010.9 0.6 79
2019-08-25 07:00:00 22.3 5 Este 14 Nordeste 0 1010.5 0.6 77
2019-08-25 06:00:00 23.4 5 Sudoeste 18 Nordeste 0 1010.5 0.2 76
2019-08-25 05:00:00 24.4 7 Norte 41 Nordeste 0 1010.3 -0.2 72
2019-08-25 04:00:00 24.3 17 Nordeste 41 Nordeste 0 1009.9 -1.3 73
2019-08-25 03:00:00 24.2 27 Nordeste 48 Nordeste 0 1010.3 -1.4 75
2019-08-25 02:00:00 24.4 19 Nordeste 42 Nordeste 0 1010.5 -1.2 75
2019-08-25 01:00:00 24.3 10 Este 33 Nordeste 0 1011.2 0.1 73
2019-08-25 00:00:00 24.5 10 Este 46 Nordeste 0 1011.7 1.2 70
2019-08-24 23:00:00 24 21 Nordeste 50 Nordeste 0 1011.7 1.7 78
2019-08-24 22:00:00 24 24 Nordeste 49 Nordeste 0 1011.1 1.5 78
2019-08-24 21:00:00 24 28 Nordeste 66 Nordeste 0 1010.5 1.5 77
2019-08-24 20:00:00 24.9 37 Nordeste 58 Nordeste 0 1010 0.8 71
2019-08-24 19:00:00 26.4 13 Noroeste 69 Norte 0 1009.6 -0.4 61
2019-08-24 18:00:00 28.1 36 Nordeste 61 Norte 0 1009 -1 55
2019-08-24 17:00:00 28.3 31 Nordeste 60 Nordeste 0 1009.2 -1.3 59
2019-08-24 16:00:00 28.7 12 Nordeste 62 Norte 0 1010 -1.3 57
2019-08-24 15:00:00 28.2 33 Norte 59 Nordeste 0 1010 -1.9 62
2019-08-24 14:00:00 28.7 37 Nordeste 58 Nordeste 0 1010.5 -1.4 60
2019-08-24 13:00:00 28.6 29 Nordeste 53 Nordeste 0 1011.3 -0.4 61
2019-08-24 12:00:00 26.7 32 Nordeste 55 Norte 0 1011.9 1 68
2019-08-24 11:00:00 26.1 31 Nordeste 60 Norte 0 1011.9 1.1 70
2019-08-24 10:00:00 25.2 27 Nordeste 59 Nordeste 0 1011.7 1.3 70
2019-08-24 09:00:00 24.8 6 Este 40 Nordeste 0 1010.9 0.8 67
2019-08-24 08:00:00 24.1 16 Nordeste 44 Nordeste 0 1010.8 0.8 70
2019-08-24 07:00:00 23.8 24 Nordeste 55 Nordeste 0 1010.4 -0.6 73
2019-08-24 06:00:00 23.7 20 Nordeste 51 Nordeste 0 1010.1 -1 70
2019-08-24 05:00:00 22.9 17 Nordeste 47 Nordeste 0 1010 -1.4 76
2019-08-24 04:00:00 21.6 8 Este 10 Sudeste 0 1011 -0.9 80
2019-08-24 03:00:00 22.3 6 Este 37 Norte 0 1011.1 -1.1 76
2019-08-24 02:00:00 22.8 17 Nordeste 43 Nordeste 0 1011.4 -0.9 77
2019-08-24 01:00:00 22.9 27 Nordeste 51 Nordeste 0 1011.9 0.1 79
2019-08-24 00:00:00 22.9 32 Nordeste 49 Nordeste 0 1012.2 0.9 79
2019-08-23 23:00:00 23.1 18 Nordeste 51 Nordeste 0 1012.3 1.5 78
2019-08-23 22:00:00 23.2 35 Nordeste 53 Nordeste 0 1011.8 1.2 79
2019-08-23 21:00:00 23.4 37 Nordeste 62 Nordeste 0 1011.3 0.4 77
2019-08-23 20:00:00 23.9 39 Nordeste 69 Nordeste 0 1010.8 -0.2 76
2019-08-23 19:00:00 25.4 28 Nordeste 55 Nordeste 0 1010.6 -1 69
2019-08-23 18:00:00 24.5 34 Nordeste 65 Norte 0 1010.9 -0.3 73
2019-08-23 17:00:00 24.6 32 Nordeste 65 Nordeste 0 1011 -0.3 72
2019-08-23 16:00:00 25.1 31 Norte 59 Nordeste 0 1011.6 0 69
2019-08-23 15:00:00 25.4 33 Nordeste 63 Nordeste 0 1011.2 -0.5 68
2019-08-23 14:00:00 25.4 36 Norte 69 Nordeste 0 1011.3 -0.5 68
2019-08-23 13:00:00 25.8 38 Nordeste 64 Nordeste 0 1011.6 0.3 66
2019-08-23 12:00:00 25.8 33 Nordeste 59 Nordeste 0 1011.7 0.2 65
2019-08-23 11:00:00 25.3 21 Norte 47 Norte 0 1011.8 0.8 65
2019-08-23 10:00:00 23.9 25 Nordeste 55 Nordeste 0 1011.3 0.8 71
2019-08-23 09:00:00 22.8 20 Nordeste 42 Nordeste 0 1011.5 0.9 75
2019-08-23 08:00:00 22.3 27 Nordeste 50 Nordeste 0 1011 0.5 77
2019-08-23 07:00:00 22.3 32 Nordeste 57 Nordeste 0 1010.5 -0.2 76
2019-08-23 06:00:00 22.3 33 Nordeste 55 Nordeste 0 1010.6 -0.4 77
2019-08-23 05:00:00 22.2 31 Nordeste 55 Norte 0 1010.5 -0.9 77
2019-08-23 04:00:00 22.4 34 Nordeste 54 Nordeste 0 1010.7 -0.5 76
2019-08-23 03:00:00 22.3 29 Nordeste 53 Norte 0 1011 -0.3 76
2019-08-23 02:00:00 22.2 33 Nordeste 57 Nordeste 0 1011.4 0 77
2019-08-23 01:00:00 22.3 28 Nordeste 62 Nordeste 0 1011.2 0.3 76
2019-08-23 00:00:00 22.4 34 Nordeste 57 Norte 0 1011.3 0.7 74
2019-08-22 23:00:00 22.6 30 Nordeste 67 Nordeste 0 1011.4 0.9 72
2019-08-22 22:00:00 22.6 43 Nordeste 65 Nordeste 0 1010.9 0.9 73
2019-08-22 21:00:00 22.9 37 Nordeste 66 Nordeste 0 1010.6 0.6 70
2019-08-22 20:00:00 23.6 46 Nordeste 69 Nordeste 0 1010.5 0 71
2019-08-22 19:00:00 24.8 40 Nordeste 74 Nordeste 0 1010 -0.5 65
2019-08-22 18:00:00 25.2 45 Nordeste 73 Nordeste 0 1010 -0.9 64
2019-08-22 17:00:00 25.6 42 Nordeste 78 Nordeste 0 1010.5 -0.5 63
2019-08-22 16:00:00 25.7 43 Nordeste 71 Nordeste 0 1010.5 -1.2 62
2019-08-22 15:00:00 25.2 40 Nordeste 66 Nordeste 0 1010.9 -1.1 63
2019-08-22 14:00:00 26 35 Nordeste 62 Norte 0 1011 -1.3 61
2019-08-22 13:00:00 25.5 39 Nordeste 70 Nordeste 0 1011.7 -0.7 62
2019-08-22 12:00:00 24.7 40 Nordeste 66 Nordeste 0 1012 0 64
2019-08-22 11:00:00 24.3 36 Nordeste 58 Nordeste 0 1012.3 0.6 64
2019-08-22 10:00:00 23.3 34 Nordeste 69 Nordeste 0 1012.4 0.9 67
2019-08-22 09:00:00 22.3 37 Nordeste 64 Nordeste 0 1012 1 71
2019-08-22 08:00:00 21.7 39 Nordeste 68 Nordeste 0 1011.7 0.7 73
2019-08-22 07:00:00 21.7 36 Nordeste 75 Nordeste 0 1011.5 0.2 72
2019-08-22 06:00:00 21.8 41 Nordeste 78 Nordeste 0 1011 -0.6 70
2019-08-22 05:00:00 21.7 38 Nordeste 70 Nordeste 0 1011 -1.1 73
2019-08-22 04:00:00 21.7 43 Nordeste 73 Nordeste 0 1011.3 -1.6 73
2019-08-22 03:00:00 21.9 45 Nordeste 80 Nordeste 0 1011.6 -1.8 71
2019-08-22 02:00:00 22 41 Nordeste 69 Nordeste 0 1012.1 -1.8 71
2019-08-22 01:00:00 22.1 42 Nordeste 76 Nordeste 0 1012.9 -0.7 70
2019-08-22 00:00:00 22.1 39 Nordeste 69 Nordeste 0 1013.4 -0.2 69
2019-08-21 23:00:00 22.3 38 Nordeste 68 Nordeste 0 1013.9 0.8 71
2019-08-21 22:00:00 22.5 40 Nordeste 74 Nordeste 0 1013.6 0.5 70
2019-08-21 21:00:00 22.6 38 Nordeste 72 Nordeste 0 1013.6 0.3 71
2019-08-21 20:00:00 23.5 37 Norte 74 Nordeste 0 1013.1 0 66
2019-08-21 19:00:00 24.4 33 Nordeste 72 Nordeste 0 1013.1 0.3 63
2019-08-21 18:00:00 25.3 34 Nordeste 73 Nordeste 0 1013.3 0.6 59
2019-08-21 17:00:00 25.4 36 Norte 76 Nordeste 0 1013.1 -0.4 60
2019-08-21 16:00:00 25.4 42 Norte 75 Nordeste 0 1012.8 -1.1 59
2019-08-21 15:00:00 25.8 40 Norte 89 Norte 0 1012.7 -1.7 59
2019-08-21 14:00:00 25.8 47 Nordeste 91 Nordeste 0 1013.5 -1.4 58
2019-08-21 13:00:00 25 46 Nordeste 75 Nordeste 0 1013.9 -1.1 62
2019-08-21 12:00:00 24.7 49 Nordeste 79 Nordeste 0 1014.4 -0.5 62
2019-08-21 11:00:00 24.1 42 Nordeste 75 Nordeste 0 1014.9 -0.1 65
2019-08-21 10:00:00 23.6 52 Nordeste 73 Nordeste 0 1015 0.2 62
2019-08-21 09:00:00 22.7 52 Nordeste 80 Nordeste 0 1014.9 0.6 67
2019-08-21 08:00:00 22.3 44 Nordeste 69 Nordeste 0 1015 0.8 69
2019-08-21 07:00:00 22.3 41 Nordeste 76 Nordeste 0 1014.8 0.4 69
2019-08-21 06:00:00 22.2 45 Nordeste 74 Nordeste 0 1014.3 -0.7 69
2019-08-21 05:00:00 22.2 44 Nordeste 71 Nordeste 0 1014.2 -1 72
2019-08-21 04:00:00 22.1 50 Nordeste 69 Nordeste 0 1014.4 -1.1 73
2019-08-21 03:00:00 22 47 Nordeste 68 Nordeste 0 1015 -0.9 72
2019-08-21 02:00:00 22 40 Nordeste 64 Norte 0 1015.2 -0.7 74
2019-08-21 01:00:00 22.1 38 Nordeste 64 Nordeste 0 1015.5 0.1 75
2019-08-21 00:00:00 22.3 36 Nordeste 68 Nordeste 0 1015.9 0.8 74